createdAt,value
2022-11-15T00:00:29.254Z,-10975.50
2022-11-15T00:03:36.919Z,-10976.06
2022-11-15T00:06:43.282Z,-10981.13
2022-11-15T00:09:50.084Z,-10967.38
2022-11-15T00:12:56.381Z,-10959.81
2022-11-15T00:16:04.013Z,-10971.59
2022-11-15T00:19:12.018Z,-10962.47
2022-11-15T00:22:18.398Z,-10960.78
2022-11-15T00:25:24.738Z,-10965.84
2022-11-15T00:28:31.756Z,-10963.31
2022-11-15T00:31:49.720Z,-10971.03
2022-11-15T00:34:57.114Z,-10948.31
2022-11-15T00:38:03.667Z,-10943.00
2022-11-15T00:41:10.412Z,-10943.28
2022-11-15T00:44:16.696Z,-10961.50
2022-11-15T00:47:23.188Z,-10955.88
2022-11-15T00:50:31.017Z,-10954.34
2022-11-15T00:53:37.381Z,-10972.56
2022-11-15T00:56:43.791Z,-10973.69
2022-11-15T00:59:50.319Z,-10971.59
2022-11-15T01:02:56.798Z,-10965.41
2022-11-15T01:06:05.612Z,-10959.13
2022-11-15T01:09:12.047Z,-10968.50
2022-11-15T01:12:18.362Z,-10956.44
2022-11-15T01:15:24.802Z,-10939.34
2022-11-15T01:18:30.973Z,-10931.81
2022-11-15T01:21:38.669Z,-10938.66
2022-11-15T01:24:45.027Z,-10930.97
2022-11-15T01:27:51.258Z,-10937.25
2022-11-15T01:31:00.471Z,-10943.00
2022-11-15T01:34:06.525Z,-10959.81
2022-11-15T01:37:14.397Z,-10942.72
2022-11-15T01:40:20.677Z,-10944.13
2022-11-15T01:43:29.643Z,-10945.81
2022-11-15T01:46:37.986Z,-10961.78
2022-11-15T01:49:52.169Z,-10971.16
2022-11-15T01:52:59.661Z,-10966.81
2022-11-15T01:56:08.905Z,-10953.50
2022-11-15T01:59:15.671Z,-10951.81
2022-11-15T02:02:22.432Z,-10961.34
2022-11-15T02:05:28.901Z,-10969.63
2022-11-15T02:08:36.552Z,-10970.75
2022-11-15T02:11:43.968Z,-10965.28
2022-11-15T02:14:53.918Z,-10970.31
2022-11-15T02:18:13.782Z,-10944.25
2022-11-15T02:21:29.153Z,-10920.88
2022-11-15T02:24:57.437Z,-10934.31
2022-11-15T02:28:30.549Z,-10948.31
2022-11-15T02:31:47.714Z,-10921.00
2022-11-15T02:35:04.035Z,-10929.56
2022-11-15T02:38:19.408Z,-10948.47
2022-11-15T02:41:32.130Z,-10951.69
2022-11-15T02:44:44.774Z,-10953.50
2022-11-15T02:47:56.520Z,-10959.41
2022-11-15T02:51:03.885Z,-10952.66
2022-11-15T02:54:14.587Z,-10940.34
2022-11-15T02:57:24.724Z,-10931.25
2022-11-15T03:00:38.888Z,-10929.28
2022-11-15T03:03:59.664Z,-10941.88
2022-11-15T03:07:14.020Z,-10953.94
2022-11-15T03:10:27.466Z,-10933.75
2022-11-15T03:13:40.103Z,-10941.03
2022-11-15T03:16:51.523Z,-10939.34
2022-11-15T03:20:02.671Z,-10928.72
2022-11-15T03:23:12.384Z,-10926.34
2022-11-15T03:26:23.696Z,-10931.81
2022-11-15T03:29:35.629Z,-10931.53
2022-11-15T03:32:46.870Z,-10934.47
2022-11-15T03:35:56.387Z,-10927.31
2022-11-15T03:39:07.330Z,-10921.44
2022-11-15T03:42:22.775Z,-10935.16
2022-11-15T03:45:34.430Z,-10942.03
2022-11-15T03:48:47.166Z,-10948.88
2022-11-15T03:51:55.406Z,-10942.88
2022-11-15T03:55:05.557Z,-10939.34
2022-11-15T03:58:12.053Z,-10950.00
2022-11-15T04:01:18.531Z,-10952.38
2022-11-15T04:04:25.231Z,-10931.81
2022-11-15T04:07:32.788Z,-10929.97
2022-11-15T04:10:39.673Z,-10927.31
2022-11-15T04:13:45.868Z,-10919.47
2022-11-15T04:16:51.832Z,-10908.00
2022-11-15T04:20:15.977Z,-10914.72
2022-11-15T04:23:42.872Z,-10923.69
2022-11-15T04:26:49.049Z,-10934.31
2022-11-15T04:29:55.791Z,-10924.78
2022-11-15T04:33:02.470Z,-10933.63
2022-11-15T04:36:27.173Z,-10947.63
2022-11-15T04:39:34.685Z,-10939.09
2022-11-15T04:42:43.096Z,-10940.19
2022-11-15T04:45:49.277Z,-10948.47
2022-11-15T04:48:58.862Z,-10934.75
2022-11-15T04:52:06.062Z,-10945.38
2022-11-15T04:55:13.805Z,-10943.84
2022-11-15T04:58:20.356Z,-10928.72
2022-11-15T05:01:26.858Z,-10928.03
2022-11-15T05:04:32.417Z,-10930.97
2022-11-15T05:07:38.974Z,-10914.44
2022-11-15T05:10:47.084Z,-10907.84
2022-11-15T05:13:53.465Z,-10898.75
2022-11-15T05:16:59.906Z,-10899.31
2022-11-15T05:20:07.084Z,-10899.47
2022-11-15T05:23:13.341Z,-10914.72
2022-11-15T05:26:21.373Z,-10896.78
2022-11-15T05:29:27.640Z,-10907.56
2022-11-15T05:32:33.949Z,-10928.16
2022-11-15T05:35:44.090Z,-10942.72
2022-11-15T05:38:51.198Z,-10948.59
2022-11-15T05:42:03.958Z,-10955.63
2022-11-15T05:45:11.671Z,-10957.28
2022-11-15T05:48:18.617Z,-10972.00
2022-11-15T05:51:25.869Z,-10967.38
2022-11-15T05:54:34.029Z,-10960.78
2022-11-15T05:57:41.686Z,-10926.75
2022-11-15T06:00:48.953Z,-10927.03
2022-11-15T06:03:55.310Z,-10927.03
2022-11-15T06:07:01.960Z,-10937.81
2022-11-15T06:10:09.803Z,-10928.44
2022-11-15T06:13:17.646Z,-10926.63
2022-11-15T06:16:24.313Z,-10941.03
2022-11-15T06:19:33.869Z,-10951.81
2022-11-15T06:22:40.406Z,-10950.84
2022-11-15T06:25:46.766Z,-10967.94
2022-11-15T06:28:54.292Z,-10985.03
2022-11-15T06:32:00.406Z,-10995.41
2022-11-15T06:35:07.687Z,-10992.06
2022-11-15T06:38:14.107Z,-10994.00
2022-11-15T06:41:22.075Z,-11005.22
2022-11-15T06:44:29.563Z,-11013.09
2022-11-15T06:47:35.802Z,-11010.69
2022-11-15T06:50:42.652Z,-11018.13
2022-11-15T06:53:48.614Z,-11027.37
2022-11-15T06:56:54.797Z,-11024.16
2022-11-15T07:00:02.676Z,-11031.31
2022-11-15T07:03:09.256Z,-11038.34
2022-11-15T07:06:15.669Z,-11036.09
2022-11-15T07:09:21.885Z,-11035.09
2022-11-15T07:12:28.066Z,-11029.63
2022-11-15T07:15:35.873Z,-11039.31
2022-11-15T07:18:42.996Z,-11047.72
2022-11-15T07:21:49.482Z,-11040.84
2022-11-15T07:24:55.653Z,-11046.88
2022-11-15T07:28:02.933Z,-11056.84
2022-11-15T07:31:11.225Z,-11068.63
2022-11-15T07:34:17.972Z,-11062.31
2022-11-15T07:37:24.500Z,-11074.53
2022-11-15T07:40:32.761Z,-11087.44
2022-11-15T07:43:38.922Z,-11086.47
2022-11-15T07:46:46.667Z,-11090.53
2022-11-15T07:49:53.221Z,-11090.25
2022-11-15T07:53:01.539Z,-11092.22
2022-11-15T07:56:09.048Z,-11091.94
2022-11-15T07:59:15.385Z,-11107.13
2022-11-15T08:02:27.629Z,-11103.59
2022-11-15T08:05:37.384Z,-11111.19
2022-11-15T08:08:44.005Z,-11116.53
2022-11-15T08:11:50.277Z,-11115.97
2022-11-15T08:14:56.621Z,-11133.66
2022-11-15T08:18:06.731Z,-11130.97
2022-11-15T08:21:18.442Z,-11136.03
2022-11-15T08:24:25.038Z,-11140.97
2022-11-15T08:27:31.303Z,-11156.28
2022-11-15T08:30:42.685Z,-11149.25
2022-11-15T08:33:50.225Z,-11148.25
2022-11-15T08:36:56.516Z,-11152.34
2022-11-15T08:40:03.113Z,-11166.41
2022-11-15T08:43:09.945Z,-11157.25
2022-11-15T08:46:16.546Z,-11169.50
2022-11-15T08:49:24.501Z,-11175.09
2022-11-15T08:52:30.484Z,-11168.37
2022-11-15T08:55:39.637Z,-11175.09
2022-11-15T08:58:45.800Z,-11181.00
2022-11-15T09:01:52.014Z,-11193.81
2022-11-15T09:04:59.584Z,-11196.06
2022-11-15T09:08:19.183Z,-11191.13
2022-11-15T09:11:33.420Z,-11193.81
2022-11-15T09:14:40.117Z,-11202.09
2022-11-15T09:17:46.501Z,-11212.09
2022-11-15T09:20:57.727Z,-11198.03
2022-11-15T09:24:05.389Z,-11209.41
2022-11-15T09:27:11.594Z,-11209.41
2022-11-15T09:30:18.706Z,-11227.69
2022-11-15T09:33:24.818Z,-11220.94
2022-11-15T09:36:32.395Z,-11226.84
2022-11-15T09:39:38.769Z,-11219.81
2022-11-15T09:43:00.861Z,-11233.19
2022-11-15T09:46:16.384Z,-11233.88
2022-11-15T09:49:24.353Z,-11237.69
2022-11-15T09:52:31.778Z,-11248.66
2022-11-15T09:55:49.880Z,-11263.72
2022-11-15T09:59:08.338Z,-11287.50
2022-11-15T10:02:26.198Z,-11289.63
2022-11-15T10:05:34.599Z,-11287.22
2022-11-15T10:08:52.920Z,-11270.75
2022-11-15T10:11:59.240Z,-11295.25
2022-11-15T10:15:12.428Z,-11299.19
2022-11-15T10:18:21.819Z,-11309.31
2022-11-15T10:21:40.897Z,-11305.25
2022-11-15T10:24:49.159Z,-11313.97
2022-11-15T10:27:58.866Z,-11320.59
2022-11-15T10:31:06.415Z,-11313.56
2022-11-15T10:34:16.078Z,-11333.13
2022-11-15T10:37:31.510Z,-11314.69
2022-11-15T10:40:40.083Z,-11332.13
2022-11-15T10:43:47.275Z,-11322.56
2022-11-15T10:47:28.325Z,-11331.84
2022-11-15T10:50:34.923Z,-11339.31
2022-11-15T10:53:47.667Z,-11323.41
2022-11-15T10:56:58.304Z,-11321.72
2022-11-15T11:00:08.535Z,-11338.75
2022-11-15T11:03:30.902Z,-11355.22
2022-11-15T11:06:49.579Z,-11360.88
2022-11-15T11:10:01.723Z,-11343.69
2022-11-15T11:13:25.699Z,-11362.00
2022-11-15T11:16:47.258Z,-11368.34
2022-11-15T11:20:05.784Z,-11362.84
2022-11-15T11:23:37.854Z,-11365.94
2022-11-15T11:26:51.704Z,-11358.63
2022-11-15T11:30:11.513Z,-11376.38
2022-11-15T11:33:21.244Z,-11387.91
2022-11-15T11:36:33.670Z,-11384.81
2022-11-15T11:39:51.376Z,-11387.06
2022-11-15T11:43:06.822Z,-11374.41
2022-11-15T11:46:31.741Z,-11383.41
2022-11-15T11:49:45.893Z,-11385.81
2022-11-15T11:53:03.655Z,-11393.28
2022-11-15T11:56:21.836Z,-11396.09
2022-11-15T11:59:38.090Z,-11398.34
2022-11-15T12:02:50.164Z,-11404.41
2022-11-15T12:05:59.890Z,-11400.75
2022-11-15T12:09:16.789Z,-11404.00
2022-11-15T12:12:30.016Z,-11405.97
2022-11-15T12:15:56.937Z,-11401.31
2022-11-15T12:19:06.830Z,-11403.72
2022-11-15T12:22:21.936Z,-11412.16
2022-11-15T12:25:33.540Z,-11419.22
2022-11-15T12:28:58.667Z,-11434.16
2022-11-15T12:32:25.376Z,-11415.12
2022-11-15T12:35:37.177Z,-11416.66
2022-11-15T12:38:57.156Z,-11432.19
2022-11-15T12:42:36.492Z,-11428.53
2022-11-15T12:45:44.294Z,-11435.13
2022-11-15T12:48:58.748Z,-11440.91
2022-11-15T12:52:11.768Z,-11433.59
2022-11-15T12:55:34.065Z,-11450.22
2022-11-15T12:58:46.943Z,-11445.28
2022-11-15T13:02:03.562Z,-11461.78
2022-11-15T13:05:43.201Z,-11443.47
2022-11-15T13:08:52.565Z,-11439.66
2022-11-15T13:11:59.964Z,-11435.84
2022-11-15T13:15:43.091Z,-11433.03
2022-11-15T13:18:56.219Z,-11413.00
2022-11-15T13:22:23.267Z,-11439.78
2022-11-15T13:26:12.248Z,-11432.19
2022-11-15T13:29:22.041Z,-11420.63
2022-11-15T13:32:28.165Z,-11420.91
2022-11-15T13:35:38.550Z,-11398.91
2022-11-15T13:38:45.737Z,-11393.28
2022-11-15T13:41:53.686Z,-11379.31
2022-11-15T13:45:05.746Z,-11367.34
2022-11-15T13:48:12.385Z,-11361.16
2022-11-15T13:51:25.972Z,-11346.78
2022-11-15T13:54:37.791Z,-11338.34
2022-11-15T13:57:46.698Z,-11313.56
2022-11-15T14:01:03.074Z,-11312.72
2022-11-15T14:04:13.673Z,-11301.03
2022-11-15T14:07:22.455Z,-11291.59
2022-11-15T14:10:31.833Z,-11283.41
2022-11-15T14:13:38.476Z,-11278.63
2022-11-15T14:16:48.140Z,-11270.47
2022-11-15T14:19:54.296Z,-11270.63
2022-11-15T14:23:02.395Z,-11266.13
2022-11-15T14:26:13.716Z,-11258.50
2022-11-15T14:29:26.974Z,-11249.78
2022-11-15T14:32:45.696Z,-11252.19
2022-11-15T14:35:52.788Z,-11248.53
2022-11-15T14:38:59.362Z,-11237.00
2022-11-15T14:42:10.550Z,-11234.75
2022-11-15T14:45:19.289Z,-11235.16
2022-11-15T14:48:27.177Z,-11231.34
2022-11-15T14:51:34.379Z,-11227.84
2022-11-15T14:54:40.581Z,-11214.19
2022-11-15T14:58:01.163Z,-11232.19
2022-11-15T15:01:14.932Z,-11215.88
2022-11-15T15:04:22.632Z,-11219.25
2022-11-15T15:07:28.737Z,-11206.03
2022-11-15T15:10:51.356Z,-11208.84
2022-11-15T15:13:59.428Z,-11210.25
2022-11-15T15:17:05.918Z,-11207.72
2022-11-15T15:20:27.629Z,-11201.97
2022-11-15T15:23:33.990Z,-11199.44
2022-11-15T15:26:40.402Z,-11198.72
2022-11-15T15:29:46.745Z,-11193.38
2022-11-15T15:32:53.332Z,-11191.13
2022-11-15T15:36:12.688Z,-11185.09
2022-11-15T15:39:18.928Z,-11181.72
2022-11-15T15:42:25.663Z,-11183.41
2022-11-15T15:45:40.557Z,-11177.91
2022-11-15T15:48:47.700Z,-11176.78
2022-11-15T15:51:55.246Z,-11171.19
2022-11-15T15:55:01.855Z,-11175.81
2022-11-15T15:58:09.341Z,-11182.13
2022-11-15T16:01:15.680Z,-11169.06
2022-11-15T16:04:22.079Z,-11170.91
2022-11-15T16:07:30.493Z,-11171.88
2022-11-15T16:10:37.888Z,-11165.41
2022-11-15T16:13:44.243Z,-11176.22
2022-11-15T16:16:50.450Z,-11172.44
2022-11-15T16:19:56.721Z,-11165.97
2022-11-15T16:23:08.931Z,-11154.88
2022-11-15T16:26:22.426Z,-11161.34
2022-11-15T16:29:29.305Z,-11158.66
2022-11-15T16:32:35.793Z,-11155.84
2022-11-15T16:35:42.287Z,-11161.19
2022-11-15T16:38:50.437Z,-11148.97
2022-11-15T16:41:56.812Z,-11151.63
2022-11-15T16:45:03.069Z,-11149.53
2022-11-15T16:48:35.202Z,-11144.63
2022-11-15T16:51:42.751Z,-11135.91
2022-11-15T16:54:50.428Z,-11131.81
2022-11-15T16:57:58.131Z,-11119.59
2022-11-15T17:01:05.810Z,-11137.44
2022-11-15T17:04:13.631Z,-11136.31
2022-11-15T17:07:19.711Z,-11135.19
2022-11-15T17:10:28.386Z,-11137.44
2022-11-15T17:13:34.761Z,-11126.50
2022-11-15T17:16:42.657Z,-11130.69
2022-11-15T17:19:48.562Z,-11129.59
2022-11-15T17:22:54.458Z,-11131.25
2022-11-15T17:26:17.867Z,-11126.22
2022-11-15T17:29:30.604Z,-11116.25
2022-11-15T17:32:38.243Z,-11115.53
2022-11-15T17:35:44.381Z,-11120.03
2022-11-15T17:38:58.011Z,-11104.59
2022-11-15T17:42:07.076Z,-11110.91
2022-11-15T17:45:14.484Z,-11110.47
2022-11-15T17:48:20.706Z,-11111.59
2022-11-15T17:51:27.829Z,-11109.34
2022-11-15T17:54:34.436Z,-11097.00
2022-11-15T17:57:42.274Z,-11100.94
2022-11-15T18:00:49.827Z,-11098.97
2022-11-15T18:03:57.165Z,-11094.75
2022-11-15T18:07:03.872Z,-11103.59
2022-11-15T18:10:10.694Z,-11099.81
2022-11-15T18:13:18.717Z,-11099.25
2022-11-15T18:16:31.144Z,-11091.66
2022-11-15T18:19:37.853Z,-11095.88
2022-11-15T18:22:43.950Z,-11093.63
2022-11-15T18:25:53.053Z,-11091.38
2022-11-15T18:29:05.737Z,-11088.00
2022-11-15T18:32:12.679Z,-11090.53
2022-11-15T18:35:19.053Z,-11095.44
2022-11-15T18:38:30.596Z,-11095.72
2022-11-15T18:41:37.177Z,-11095.72
2022-11-15T18:44:44.558Z,-11090.13
2022-11-15T18:48:04.517Z,-11085.19
2022-11-15T18:51:11.810Z,-11075.09
2022-11-15T18:54:19.088Z,-11075.09
2022-11-15T18:57:26.637Z,-11082.69
2022-11-15T19:00:34.203Z,-11084.63
2022-11-15T19:03:42.777Z,-11085.47
2022-11-15T19:06:51.508Z,-11085.91
2022-11-15T19:09:57.928Z,-11077.06
2022-11-15T19:13:04.181Z,-11081.56
2022-11-15T19:16:14.102Z,-11082.41
2022-11-15T19:19:21.807Z,-11079.59
2022-11-15T19:22:27.776Z,-11080.72
2022-11-15T19:25:33.801Z,-11079.88
2022-11-15T19:28:40.406Z,-11067.22
2022-11-15T19:31:48.895Z,-11068.63
2022-11-15T19:34:55.083Z,-11067.78
2022-11-15T19:38:01.449Z,-11063.31
2022-11-15T19:41:09.797Z,-11067.78
2022-11-15T19:44:16.619Z,-11064.16
2022-11-15T19:47:24.444Z,-11055.16
2022-11-15T19:50:30.757Z,-11046.75
2022-11-15T19:53:38.185Z,-11048.56
2022-11-15T19:56:44.774Z,-11052.91
2022-11-15T19:59:51.033Z,-11053.34
2022-11-15T20:02:58.835Z,-11059.66
2022-11-15T20:06:06.908Z,-11056.84
2022-11-15T20:09:15.040Z,-11054.88
2022-11-15T20:12:21.600Z,-11058.69
2022-11-15T20:15:28.289Z,-11061.06
2022-11-15T20:18:36.504Z,-11062.47
2022-11-15T20:21:43.751Z,-11049.41
2022-11-15T20:24:50.036Z,-11049.56
2022-11-15T20:27:56.231Z,-11056.00
2022-11-15T20:31:03.012Z,-11051.50
2022-11-15T20:34:11.074Z,-11051.25
2022-11-15T20:37:17.505Z,-11052.50
2022-11-15T20:40:24.134Z,-11047.03
2022-11-15T20:43:30.362Z,-11041.41
2022-11-15T20:46:36.632Z,-11046.19
2022-11-15T20:49:44.082Z,-11043.25
2022-11-15T20:52:50.396Z,-11039.72
2022-11-15T20:55:56.255Z,-11038.75
2022-11-15T20:59:02.457Z,-11040.28
2022-11-15T21:02:10.606Z,-11040.72
2022-11-15T21:05:18.474Z,-11046.47
2022-11-15T21:08:24.829Z,-11049.97
2022-11-15T21:11:48.858Z,-11053.34
2022-11-15T21:14:54.936Z,-11055.16
2022-11-15T21:18:01.242Z,-11046.19
2022-11-15T21:21:09.065Z,-11040.16
2022-11-15T21:24:15.139Z,-11027.25
2022-11-15T21:27:21.810Z,-11027.94
2022-11-15T21:30:28.237Z,-11028.78
2022-11-15T21:33:36.154Z,-11038.19
2022-11-15T21:36:44.091Z,-11021.91
2022-11-15T21:39:50.793Z,-11018.84
2022-11-15T21:42:57.430Z,-11013.50
2022-11-15T21:46:05.535Z,-11025.72
2022-11-15T21:49:11.803Z,-11015.75
2022-11-15T21:52:19.643Z,-11031.59
2022-11-15T21:55:25.875Z,-11032.56
2022-11-15T21:58:32.760Z,-11030.63
2022-11-15T22:01:56.928Z,-11040.28
2022-11-15T22:05:02.970Z,-11038.75
2022-11-15T22:08:10.736Z,-11039.72
2022-11-15T22:11:17.205Z,-11037.78
2022-11-15T22:14:23.401Z,-11038.34
2022-11-15T22:17:49.601Z,-11038.75
2022-11-15T22:20:57.052Z,-11038.59
2022-11-15T22:24:05.259Z,-11033.56
2022-11-15T22:27:12.044Z,-11037.22
2022-11-15T22:30:19.544Z,-11022.06
2022-11-15T22:33:28.206Z,-11012.25
2022-11-15T22:36:52.368Z,-11013.66
2022-11-15T22:40:02.874Z,-11016.03
2022-11-15T22:43:09.533Z,-11024.03
2022-11-15T22:46:16.273Z,-11007.91
2022-11-15T22:49:22.715Z,-11013.38
2022-11-15T22:52:29.365Z,-11006.34
2022-11-15T22:55:38.903Z,-10999.63
2022-11-15T22:58:45.467Z,-11011.97
2022-11-15T23:01:52.053Z,-11017.16
2022-11-15T23:04:58.534Z,-11022.75
2022-11-15T23:08:05.169Z,-11013.38
2022-11-15T23:11:30.814Z,-11025.16
2022-11-15T23:14:37.109Z,-11007.47
2022-11-15T23:17:43.741Z,-11006.34
2022-11-15T23:20:50.279Z,-10997.81
2022-11-15T23:23:55.569Z,-11015.88
2022-11-15T23:27:07.260Z,-11020.09
2022-11-15T23:30:43.466Z,-11016.31
2022-11-15T23:33:58.665Z,-10999.47
2022-11-15T23:37:06.844Z,-10987.56
2022-11-15T23:40:14.224Z,-10986.88
2022-11-15T23:43:22.811Z,-11001.31
2022-11-15T23:46:29.265Z,-10991.34
2022-11-15T23:49:35.558Z,-10998.34
2022-11-15T23:52:41.727Z,-10995.41
2022-11-15T23:55:55.977Z,-11004.09
2022-11-15T23:59:03.883Z,-10991.22
